Hlavní strana
METAR-TAF:

METAR-TAF

Letiště :

Letecká základna

Niederstetten, Německo

zeměpisná šířka: 49-24N, zeměpisná délka: 009-58E, výška: 468 m

Aktuální stav počasí

Zpráva byla vytvořena před 53 minutami, v 04:20 UTC
Východní vítr 9 kt
Teplota 8°C
Vlhkost vzduchu 57%
Tlak 1022 hPa
Viditelnost 10 km a více
Skoro jasno ve výšce 30000 ft

METAR: ETHN 210420Z 08009KT 9999 FEW300 08/00 Q1022 BLU+

Čas: 07:13 (05:13 UTC)


TAF: chybějící

Stav a předpovědi počasí z více než 4 000 letišť (zprávy METAR a TAF).

Červené a žluté tečky na mapě představují dostupné meteorologické stanice.

Když kurzor umístíte na tečku, zobrazí se název stanice.

Pak kliknutím zobrazíte stav a předpověď počasí.

Chcete-li změnit mapu, kliknutím na zelené tlačítko se znaménkem +mapu přiblížíte, kliknutím na zelené tlačítko se znaménkem – mapu oddálíte a kliknutím na zelené šipky přejdete na sousední mapy.


METAR-TAF: